sensor_id;sensor_type;location;lat;lon;timestamp;P1;durP1;ratioP1;P2;durP2;ratioP2
47545;SDS011;50104;52.002;4.688;2023-04-24T00:03:33;2.90;;;2.70;;
47545;SDS011;50104;52.002;4.688;2023-04-24T00:08:35;4.03;;;2.28;;
47545;SDS011;50104;52.002;4.688;2023-04-24T00:13:36;2.90;;;2.63;;
47545;SDS011;50104;52.002;4.688;2023-04-24T00:18:38;3.35;;;2.78;;
47545;SDS011;50104;52.002;4.688;2023-04-24T00:23:39;3.20;;;2.83;;
47545;SDS011;50104;52.002;4.688;2023-04-24T00:28:39;3.67;;;2.97;;
47545;SDS011;50104;52.002;4.688;2023-04-24T00:33:40;3.65;;;2.90;;
47545;SDS011;50104;52.002;4.688;2023-04-24T00:38:41;3.58;;;2.38;;
47545;SDS011;50104;52.002;4.688;2023-04-24T00:43:42;3.47;;;2.30;;
47545;SDS011;50104;52.002;4.688;2023-04-24T00:48:43;3.92;;;2.10;;
47545;SDS011;50104;52.002;4.688;2023-04-24T00:53:46;2.20;;;2.00;;
47545;SDS011;50104;52.002;4.688;2023-04-24T00:58:47;2.10;;;2.00;;
47545;SDS011;50104;52.002;4.688;2023-04-24T01:03:49;3.35;;;2.35;;
47545;SDS011;50104;52.002;4.688;2023-04-24T01:08:51;2.30;;;2.10;;
47545;SDS011;50104;52.002;4.688;2023-04-24T01:13:52;4.50;;;3.03;;
47545;SDS011;50104;52.002;4.688;2023-04-24T01:18:53;3.20;;;2.90;;
47545;SDS011;50104;52.002;4.688;2023-04-24T01:23:54;5.45;;;3.20;;
47545;SDS011;50104;52.002;4.688;2023-04-24T01:28:57;4.68;;;3.47;;
47545;SDS011;50104;52.002;4.688;2023-04-24T01:33:58;2.95;;;2.55;;
47545;SDS011;50104;52.002;4.688;2023-04-24T01:38:59;3.95;;;2.95;;
47545;SDS011;50104;52.002;4.688;2023-04-24T01:44:01;6.72;;;3.53;;
47545;SDS011;50104;52.002;4.688;2023-04-24T01:49:02;4.47;;;3.53;;
47545;SDS011;50104;52.002;4.688;2023-04-24T01:54:03;3.45;;;3.08;;
47545;SDS011;50104;52.002;4.688;2023-04-24T01:59:05;4.28;;;3.58;;
47545;SDS011;50104;52.002;4.688;2023-04-24T02:04:07;3.75;;;3.35;;
47545;SDS011;50104;52.002;4.688;2023-04-24T02:09:08;2.42;;;2.22;;
47545;SDS011;50104;52.002;4.688;2023-04-24T02:14:11;2.58;;;1.83;;
47545;SDS011;50104;52.002;4.688;2023-04-24T02:19:11;1.95;;;1.80;;
47545;SDS011;50104;52.002;4.688;2023-04-24T02:24:12;1.67;;;1.58;;
47545;SDS011;50104;52.002;4.688;2023-04-24T02:29:13;1.80;;;1.63;;
47545;SDS011;50104;52.002;4.688;2023-04-24T02:34:15;2.00;;;1.65;;
47545;SDS011;50104;52.002;4.688;2023-04-24T02:39:16;1.75;;;1.48;;
47545;SDS011;50104;52.002;4.688;2023-04-24T02:44:17;1.85;;;1.63;;
47545;SDS011;50104;52.002;4.688;2023-04-24T02:49:18;4.07;;;1.92;;
47545;SDS011;50104;52.002;4.688;2023-04-24T02:54:19;2.35;;;1.92;;
47545;SDS011;50104;52.002;4.688;2023-04-24T02:59:19;3.22;;;2.03;;
47545;SDS011;50104;52.002;4.688;2023-04-24T03:04:20;3.22;;;2.38;;
47545;SDS011;50104;52.002;4.688;2023-04-24T03:09:22;2.78;;;1.55;;
47545;SDS011;50104;52.002;4.688;2023-04-24T03:14:23;1.40;;;1.30;;
47545;SDS011;50104;52.002;4.688;2023-04-24T03:19:24;0.90;;;0.77;;
47545;SDS011;50104;52.002;4.688;2023-04-24T03:24:27;0.70;;;0.70;;
47545;SDS011;50104;52.002;4.688;2023-04-24T03:29:28;0.63;;;0.55;;
47545;SDS011;50104;52.002;4.688;2023-04-24T03:34:29;1.10;;;0.60;;
47545;SDS011;50104;52.002;4.688;2023-04-24T03:39:31;1.08;;;1.00;;
47545;SDS011;50104;52.002;4.688;2023-04-24T03:44:32;3.55;;;0.73;;
47545;SDS011;50104;52.002;4.688;2023-04-24T03:49:33;3.15;;;0.80;;
47545;SDS011;50104;52.002;4.688;2023-04-24T03:54:33;5.47;;;0.90;;
47545;SDS011;50104;52.002;4.688;2023-04-24T03:59:34;0.70;;;0.70;;
47545;SDS011;50104;52.002;4.688;2023-04-24T04:04:35;0.50;;;0.50;;
47545;SDS011;50104;52.002;4.688;2023-04-24T04:09:36;0.90;;;0.70;;
47545;SDS011;50104;52.002;4.688;2023-04-24T04:14:37;2.10;;;0.68;;
47545;SDS011;50104;52.002;4.688;2023-04-24T04:19:38;2.15;;;0.75;;
47545;SDS011;50104;52.002;4.688;2023-04-24T04:24:39;3.85;;;1.08;;
47545;SDS011;50104;52.002;4.688;2023-04-24T04:29:40;1.58;;;0.85;;
47545;SDS011;50104;52.002;4.688;2023-04-24T04:34:42;1.52;;;1.20;;
47545;SDS011;50104;52.002;4.688;2023-04-24T04:39:45;1.15;;;0.95;;
47545;SDS011;50104;52.002;4.688;2023-04-24T04:44:46;1.25;;;0.90;;
47545;SDS011;50104;52.002;4.688;2023-04-24T04:49:47;2.72;;;1.35;;
47545;SDS011;50104;52.002;4.688;2023-04-24T04:54:48;1.20;;;1.20;;
47545;SDS011;50104;52.002;4.688;2023-04-24T04:59:49;1.48;;;1.00;;
47545;SDS011;50104;52.002;4.688;2023-04-24T05:04:50;1.17;;;1.08;;
47545;SDS011;50104;52.002;4.688;2023-04-24T05:09:51;2.00;;;1.50;;
47545;SDS011;50104;52.002;4.688;2023-04-24T05:14:52;4.35;;;2.30;;
47545;SDS011;50104;52.002;4.688;2023-04-24T05:19:54;3.53;;;2.33;;
47545;SDS011;50104;52.002;4.688;2023-04-24T05:24:55;8.88;;;2.97;;
47545;SDS011;50104;52.002;4.688;2023-04-24T05:29:56;5.90;;;3.53;;
47545;SDS011;50104;52.002;4.688;2023-04-24T05:34:57;10.02;;;4.43;;
47545;SDS011;50104;52.002;4.688;2023-04-24T05:39:58;11.10;;;6.85;;
47545;SDS011;50104;52.002;4.688;2023-04-24T05:44:58;10.63;;;6.10;;
47545;SDS011;50104;52.002;4.688;2023-04-24T05:49:59;6.63;;;5.07;;
47545;SDS011;50104;52.002;4.688;2023-04-24T05:55:00;14.48;;;5.90;;
47545;SDS011;50104;52.002;4.688;2023-04-24T06:00:01;9.85;;;6.63;;
47545;SDS011;50104;52.002;4.688;2023-04-24T06:05:04;9.05;;;5.53;;
47545;SDS011;50104;52.002;4.688;2023-04-24T06:10:05;19.55;;;6.22;;
47545;SDS011;50104;52.002;4.688;2023-04-24T06:15:07;14.25;;;7.90;;
47545;SDS011;50104;52.002;4.688;2023-04-24T06:20:09;12.13;;;6.00;;
47545;SDS011;50104;52.002;4.688;2023-04-24T06:25:11;10.63;;;5.57;;
47545;SDS011;50104;52.002;4.688;2023-04-24T06:30:12;19.15;;;5.90;;
47545;SDS011;50104;52.002;4.688;2023-04-24T06:35:13;19.90;;;6.28;;
47545;SDS011;50104;52.002;4.688;2023-04-24T06:40:14;10.38;;;4.50;;
47545;SDS011;50104;52.002;4.688;2023-04-24T06:45:15;12.63;;;4.20;;
47545;SDS011;50104;52.002;4.688;2023-04-24T06:50:17;13.07;;;4.88;;
47545;SDS011;50104;52.002;4.688;2023-04-24T06:55:18;14.35;;;6.22;;
47545;SDS011;50104;52.002;4.688;2023-04-24T07:00:19;12.05;;;4.38;;
47545;SDS011;50104;52.002;4.688;2023-04-24T07:05:20;6.93;;;3.88;;
47545;SDS011;50104;52.002;4.688;2023-04-24T07:10:21;13.43;;;4.05;;
47545;SDS011;50104;52.002;4.688;2023-04-24T07:15:22;14.63;;;4.53;;
47545;SDS011;50104;52.002;4.688;2023-04-24T07:20:23;11.52;;;3.83;;
47545;SDS011;50104;52.002;4.688;2023-04-24T07:25:24;8.00;;;2.85;;
47545;SDS011;50104;52.002;4.688;2023-04-24T07:30:25;13.88;;;3.67;;
47545;SDS011;50104;52.002;4.688;2023-04-24T07:35:28;10.75;;;2.65;;
47545;SDS011;50104;52.002;4.688;2023-04-24T07:40:30;11.50;;;3.33;;
47545;SDS011;50104;52.002;4.688;2023-04-24T07:45:30;9.60;;;2.60;;
47545;SDS011;50104;52.002;4.688;2023-04-24T07:50:33;9.07;;;3.08;;
47545;SDS011;50104;52.002;4.688;2023-04-24T07:55:37;13.45;;;2.78;;
47545;SDS011;50104;52.002;4.688;2023-04-24T08:00:38;9.82;;;2.28;;
47545;SDS011;50104;52.002;4.688;2023-04-24T08:05:39;11.05;;;3.08;;
47545;SDS011;50104;52.002;4.688;2023-04-24T08:10:40;11.77;;;3.30;;
47545;SDS011;50104;52.002;4.688;2023-04-24T08:15:41;18.15;;;2.70;;
47545;SDS011;50104;52.002;4.688;2023-04-24T08:20:42;5.20;;;2.15;;
47545;SDS011;50104;52.002;4.688;2023-04-24T08:25:43;10.95;;;2.70;;
47545;SDS011;50104;52.002;4.688;2023-04-24T08:30:44;9.98;;;2.22;;
47545;SDS011;50104;52.002;4.688;2023-04-24T08:35:47;9.30;;;2.38;;
47545;SDS011;50104;52.002;4.688;2023-04-24T08:40:48;11.23;;;3.67;;
47545;SDS011;50104;52.002;4.688;2023-04-24T08:45:49;6.90;;;1.92;;
47545;SDS011;50104;52.002;4.688;2023-04-24T08:50:50;4.18;;;1.83;;
47545;SDS011;50104;52.002;4.688;2023-04-24T08:55:51;3.20;;;1.48;;
47545;SDS011;50104;52.002;4.688;2023-04-24T09:00:56;3.17;;;1.73;;
47545;SDS011;50104;52.002;4.688;2023-04-24T09:05:58;9.02;;;1.75;;
47545;SDS011;50104;52.002;4.688;2023-04-24T09:11:00;6.07;;;1.98;;
47545;SDS011;50104;52.002;4.688;2023-04-24T09:16:02;9.02;;;2.08;;
47545;SDS011;50104;52.002;4.688;2023-04-24T09:21:06;8.13;;;1.75;;
47545;SDS011;50104;52.002;4.688;2023-04-24T09:26:10;2.25;;;1.05;;
47545;SDS011;50104;52.002;4.688;2023-04-24T09:31:18;4.15;;;0.80;;
47545;SDS011;50104;52.002;4.688;2023-04-24T09:36:54;2.67;;;0.93;;
47545;SDS011;50104;52.002;4.688;2023-04-24T09:41:49;4.70;;;1.30;;
47545;SDS011;50104;52.002;4.688;2023-04-24T09:47:01;5.68;;;1.00;;
47545;SDS011;50104;52.002;4.688;2023-04-24T09:52:05;4.15;;;1.13;;
47545;SDS011;50104;52.002;4.688;2023-04-24T09:57:08;2.80;;;0.82;;
47545;SDS011;50104;52.002;4.688;2023-04-24T10:02:19;4.38;;;1.08;;
47545;SDS011;50104;52.002;4.688;2023-04-24T10:07:20;0.70;;;0.60;;
47545;SDS011;50104;52.002;4.688;2023-04-24T10:12:22;6.28;;;1.00;;
47545;SDS011;50104;52.002;4.688;2023-04-24T10:17:25;5.78;;;0.88;;
47545;SDS011;50104;52.002;4.688;2023-04-24T10:22:27;3.42;;;1.10;;
47545;SDS011;50104;52.002;4.688;2023-04-24T10:27:31;1.77;;;0.57;;
47545;SDS011;50104;52.002;4.688;2023-04-24T10:32:32;3.03;;;0.88;;
47545;SDS011;50104;52.002;4.688;2023-04-24T10:37:37;2.75;;;0.95;;
47545;SDS011;50104;52.002;4.688;2023-04-24T10:42:48;3.08;;;0.70;;
47545;SDS011;50104;52.002;4.688;2023-04-24T10:48:03;2.33;;;0.68;;
47545;SDS011;50104;52.002;4.688;2023-04-24T10:53:29;1.40;;;0.77;;
47545;SDS011;50104;52.002;4.688;2023-04-24T11:03:50;3.47;;;1.25;;
47545;SDS011;50104;52.002;4.688;2023-04-24T11:08:59;6.05;;;1.10;;
47545;SDS011;50104;52.002;4.688;2023-04-24T11:14:16;6.97;;;1.10;;
47545;SDS011;50104;52.002;4.688;2023-04-24T11:19:24;7.97;;;2.08;;
47545;SDS011;50104;52.002;4.688;2023-04-24T11:29:40;5.88;;;0.90;;
47545;SDS011;50104;52.002;4.688;2023-04-24T11:34:57;5.68;;;0.88;;
47545;SDS011;50104;52.002;4.688;2023-04-24T11:40:17;0.75;;;0.57;;
47545;SDS011;50104;52.002;4.688;2023-04-24T11:45:24;3.67;;;0.80;;
47545;SDS011;50104;52.002;4.688;2023-04-24T11:50:27;5.82;;;1.23;;
47545;SDS011;50104;52.002;4.688;2023-04-24T11:55:29;3.80;;;1.00;;
47545;SDS011;50104;52.002;4.688;2023-04-24T12:00:31;3.50;;;0.93;;
47545;SDS011;50104;52.002;4.688;2023-04-24T12:05:35;5.78;;;1.50;;
47545;SDS011;50104;52.002;4.688;2023-04-24T12:10:36;8.27;;;1.50;;
47545;SDS011;50104;52.002;4.688;2023-04-24T12:15:39;5.00;;;1.30;;
47545;SDS011;50104;52.002;4.688;2023-04-24T12:20:40;9.57;;;1.77;;
47545;SDS011;50104;52.002;4.688;2023-04-24T12:25:41;7.63;;;1.95;;
47545;SDS011;50104;52.002;4.688;2023-04-24T12:30:51;6.47;;;1.40;;
47545;SDS011;50104;52.002;4.688;2023-04-24T12:36:03;2.20;;;1.52;;
47545;SDS011;50104;52.002;4.688;2023-04-24T12:41:08;6.90;;;1.40;;
47545;SDS011;50104;52.002;4.688;2023-04-24T12:46:12;9.93;;;1.90;;
47545;SDS011;50104;52.002;4.688;2023-04-24T12:51:13;8.70;;;2.15;;
47545;SDS011;50104;52.002;4.688;2023-04-24T12:56:15;8.70;;;2.13;;
47545;SDS011;50104;52.002;4.688;2023-04-24T13:01:17;4.93;;;1.40;;
47545;SDS011;50104;52.002;4.688;2023-04-24T13:06:18;6.85;;;1.75;;
47545;SDS011;50104;52.002;4.688;2023-04-24T13:11:18;7.03;;;1.90;;
47545;SDS011;50104;52.002;4.688;2023-04-24T13:16:19;4.15;;;1.95;;
47545;SDS011;50104;52.002;4.688;2023-04-24T13:21:20;7.15;;;1.80;;
47545;SDS011;50104;52.002;4.688;2023-04-24T13:26:21;10.23;;;2.42;;
47545;SDS011;50104;52.002;4.688;2023-04-24T13:31:22;5.85;;;1.85;;
47545;SDS011;50104;52.002;4.688;2023-04-24T13:36:23;11.32;;;2.42;;
47545;SDS011;50104;52.002;4.688;2023-04-24T13:41:24;9.73;;;2.65;;
47545;SDS011;50104;52.002;4.688;2023-04-24T13:46:25;6.78;;;1.98;;
47545;SDS011;50104;52.002;4.688;2023-04-24T13:51:26;5.30;;;1.70;;
47545;SDS011;50104;52.002;4.688;2023-04-24T13:56:27;5.30;;;2.13;;
47545;SDS011;50104;52.002;4.688;2023-04-24T14:01:28;7.85;;;2.17;;
47545;SDS011;50104;52.002;4.688;2023-04-24T14:06:29;9.30;;;2.85;;
47545;SDS011;50104;52.002;4.688;2023-04-24T14:11:30;8.07;;;2.35;;
47545;SDS011;50104;52.002;4.688;2023-04-24T14:16:31;10.35;;;2.53;;
47545;SDS011;50104;52.002;4.688;2023-04-24T14:21:32;8.57;;;2.63;;
47545;SDS011;50104;52.002;4.688;2023-04-24T14:26:33;9.43;;;2.90;;
47545;SDS011;50104;52.002;4.688;2023-04-24T14:31:34;9.52;;;3.22;;
47545;SDS011;50104;52.002;4.688;2023-04-24T14:36:35;8.05;;;2.65;;
47545;SDS011;50104;52.002;4.688;2023-04-24T14:41:36;11.68;;;3.20;;
47545;SDS011;50104;52.002;4.688;2023-04-24T14:46:39;13.18;;;3.50;;
47545;SDS011;50104;52.002;4.688;2023-04-24T14:51:40;12.40;;;3.53;;
47545;SDS011;50104;52.002;4.688;2023-04-24T14:56:41;8.88;;;2.83;;
47545;SDS011;50104;52.002;4.688;2023-04-24T15:01:43;12.60;;;3.50;;
47545;SDS011;50104;52.002;4.688;2023-04-24T15:06:45;10.88;;;3.92;;
47545;SDS011;50104;52.002;4.688;2023-04-24T15:11:46;5.93;;;2.55;;
47545;SDS011;50104;52.002;4.688;2023-04-24T15:16:47;10.00;;;2.80;;
47545;SDS011;50104;52.002;4.688;2023-04-24T15:21:48;9.35;;;2.92;;
47545;SDS011;50104;52.002;4.688;2023-04-24T15:26:49;5.78;;;2.38;;
47545;SDS011;50104;52.002;4.688;2023-04-24T15:31:50;7.10;;;2.20;;
47545;SDS011;50104;52.002;4.688;2023-04-24T15:36:51;11.48;;;2.63;;
47545;SDS011;50104;52.002;4.688;2023-04-24T15:41:52;10.38;;;2.75;;
47545;SDS011;50104;52.002;4.688;2023-04-24T15:46:56;12.45;;;2.75;;
47545;SDS011;50104;52.002;4.688;2023-04-24T15:52:01;8.18;;;2.92;;
47545;SDS011;50104;52.002;4.688;2023-04-24T15:57:02;9.18;;;3.03;;
47545;SDS011;50104;52.002;4.688;2023-04-24T16:02:03;11.23;;;3.15;;
47545;SDS011;50104;52.002;4.688;2023-04-24T16:07:04;8.02;;;3.72;;
47545;SDS011;50104;52.002;4.688;2023-04-24T16:12:06;9.93;;;2.85;;
47545;SDS011;50104;52.002;4.688;2023-04-24T16:17:09;9.93;;;2.75;;
47545;SDS011;50104;52.002;4.688;2023-04-24T16:22:10;7.72;;;2.50;;
47545;SDS011;50104;52.002;4.688;2023-04-24T16:27:11;12.77;;;3.40;;
47545;SDS011;50104;52.002;4.688;2023-04-24T16:32:12;6.88;;;2.75;;
47545;SDS011;50104;52.002;4.688;2023-04-24T16:37:13;7.45;;;2.78;;
47545;SDS011;50104;52.002;4.688;2023-04-24T16:42:14;5.95;;;2.50;;
47545;SDS011;50104;52.002;4.688;2023-04-24T16:47:15;8.68;;;2.30;;
47545;SDS011;50104;52.002;4.688;2023-04-24T16:52:16;8.95;;;3.33;;
47545;SDS011;50104;52.002;4.688;2023-04-24T16:57:17;10.10;;;3.50;;
47545;SDS011;50104;52.002;4.688;2023-04-24T17:02:18;21.75;;;3.85;;
47545;SDS011;50104;52.002;4.688;2023-04-24T17:07:19;11.90;;;3.35;;
47545;SDS011;50104;52.002;4.688;2023-04-24T17:12:20;9.38;;;3.20;;
47545;SDS011;50104;52.002;4.688;2023-04-24T17:17:21;12.27;;;3.00;;
47545;SDS011;50104;52.002;4.688;2023-04-24T17:22:22;11.20;;;3.13;;
47545;SDS011;50104;52.002;4.688;2023-04-24T17:27:23;9.77;;;2.78;;
47545;SDS011;50104;52.002;4.688;2023-04-24T17:32:24;11.77;;;2.67;;
47545;SDS011;50104;52.002;4.688;2023-04-24T17:37:26;14.75;;;2.70;;
47545;SDS011;50104;52.002;4.688;2023-04-24T17:42:26;10.90;;;2.92;;
47545;SDS011;50104;52.002;4.688;2023-04-24T17:47:28;6.53;;;2.22;;
47545;SDS011;50104;52.002;4.688;2023-04-24T17:52:29;6.93;;;2.55;;
47545;SDS011;50104;52.002;4.688;2023-04-24T17:57:30;8.70;;;2.75;;
47545;SDS011;50104;52.002;4.688;2023-04-24T18:02:31;5.40;;;2.22;;
47545;SDS011;50104;52.002;4.688;2023-04-24T18:07:32;12.25;;;2.53;;
47545;SDS011;50104;52.002;4.688;2023-04-24T18:12:33;9.45;;;2.60;;
47545;SDS011;50104;52.002;4.688;2023-04-24T18:17:34;7.55;;;2.20;;
47545;SDS011;50104;52.002;4.688;2023-04-24T18:22:35;3.88;;;1.88;;
47545;SDS011;50104;52.002;4.688;2023-04-24T18:27:37;5.95;;;2.25;;
47545;SDS011;50104;52.002;4.688;2023-04-24T18:32:39;9.98;;;2.17;;
47545;SDS011;50104;52.002;4.688;2023-04-24T18:37:40;8.38;;;1.75;;
47545;SDS011;50104;52.002;4.688;2023-04-24T18:42:41;7.10;;;2.40;;
47545;SDS011;50104;52.002;4.688;2023-04-24T18:47:43;8.93;;;3.17;;
47545;SDS011;50104;52.002;4.688;2023-04-24T18:52:44;4.95;;;1.73;;
47545;SDS011;50104;52.002;4.688;2023-04-24T18:57:45;7.95;;;2.53;;
47545;SDS011;50104;52.002;4.688;2023-04-24T19:02:46;7.88;;;1.67;;
47545;SDS011;50104;52.002;4.688;2023-04-24T19:07:47;2.83;;;1.20;;
47545;SDS011;50104;52.002;4.688;2023-04-24T19:12:48;8.95;;;1.67;;
47545;SDS011;50104;52.002;4.688;2023-04-24T19:17:55;2.42;;;1.10;;
47545;SDS011;50104;52.002;4.688;2023-04-24T19:22:56;5.72;;;1.10;;
47545;SDS011;50104;52.002;4.688;2023-04-24T19:27:57;5.57;;;1.05;;
47545;SDS011;50104;52.002;4.688;2023-04-24T19:32:59;2.70;;;1.17;;
47545;SDS011;50104;52.002;4.688;2023-04-24T19:38:00;8.38;;;1.55;;
47545;SDS011;50104;52.002;4.688;2023-04-24T19:43:01;6.85;;;1.70;;
47545;SDS011;50104;52.002;4.688;2023-04-24T19:48:02;4.70;;;1.40;;
47545;SDS011;50104;52.002;4.688;2023-04-24T19:53:03;1.80;;;1.30;;
47545;SDS011;50104;52.002;4.688;2023-04-24T19:58:05;5.13;;;1.60;;
47545;SDS011;50104;52.002;4.688;2023-04-24T20:03:06;10.50;;;1.85;;
47545;SDS011;50104;52.002;4.688;2023-04-24T20:08:07;5.43;;;1.65;;
47545;SDS011;50104;52.002;4.688;2023-04-24T20:13:10;3.45;;;1.42;;
47545;SDS011;50104;52.002;4.688;2023-04-24T20:18:11;5.70;;;1.52;;
47545;SDS011;50104;52.002;4.688;2023-04-24T20:23:13;7.60;;;1.88;;
47545;SDS011;50104;52.002;4.688;2023-04-24T20:28:14;3.40;;;1.35;;
47545;SDS011;50104;52.002;4.688;2023-04-24T20:33:16;5.05;;;1.25;;
47545;SDS011;50104;52.002;4.688;2023-04-24T20:38:17;3.67;;;1.42;;
47545;SDS011;50104;52.002;4.688;2023-04-24T20:43:18;6.28;;;2.17;;
47545;SDS011;50104;52.002;4.688;2023-04-24T20:48:19;6.07;;;1.10;;
47545;SDS011;50104;52.002;4.688;2023-04-24T20:53:20;4.00;;;1.30;;
47545;SDS011;50104;52.002;4.688;2023-04-24T20:58:21;10.88;;;1.80;;
47545;SDS011;50104;52.002;4.688;2023-04-24T21:03:23;5.82;;;1.25;;
47545;SDS011;50104;52.002;4.688;2023-04-24T21:08:24;3.75;;;1.20;;
47545;SDS011;50104;52.002;4.688;2023-04-24T21:13:25;8.55;;;1.65;;
47545;SDS011;50104;52.002;4.688;2023-04-24T21:18:26;9.15;;;2.03;;
47545;SDS011;50104;52.002;4.688;2023-04-24T21:23:27;12.40;;;2.25;;
47545;SDS011;50104;52.002;4.688;2023-04-24T21:28:28;8.77;;;1.83;;
47545;SDS011;50104;52.002;4.688;2023-04-24T21:33:30;6.57;;;1.80;;
47545;SDS011;50104;52.002;4.688;2023-04-24T21:38:31;4.95;;;2.00;;
47545;SDS011;50104;52.002;4.688;2023-04-24T21:43:31;5.28;;;2.00;;
47545;SDS011;50104;52.002;4.688;2023-04-24T21:48:32;7.80;;;2.28;;
47545;SDS011;50104;52.002;4.688;2023-04-24T21:53:33;5.88;;;1.50;;
47545;SDS011;50104;52.002;4.688;2023-04-24T21:58:34;8.20;;;2.17;;
47545;SDS011;50104;52.002;4.688;2023-04-24T22:03:36;7.75;;;2.05;;
47545;SDS011;50104;52.002;4.688;2023-04-24T22:08:37;10.20;;;2.30;;
47545;SDS011;50104;52.002;4.688;2023-04-24T22:13:37;11.95;;;2.33;;
47545;SDS011;50104;52.002;4.688;2023-04-24T22:18:39;9.05;;;2.05;;
47545;SDS011;50104;52.002;4.688;2023-04-24T22:23:41;7.05;;;1.98;;
47545;SDS011;50104;52.002;4.688;2023-04-24T22:28:45;10.73;;;2.20;;
47545;SDS011;50104;52.002;4.688;2023-04-24T22:33:45;7.32;;;2.53;;
47545;SDS011;50104;52.002;4.688;2023-04-24T22:38:46;5.80;;;3.03;;
47545;SDS011;50104;52.002;4.688;2023-04-24T22:43:47;11.50;;;2.50;;
47545;SDS011;50104;52.002;4.688;2023-04-24T22:48:49;9.93;;;2.58;;
47545;SDS011;50104;52.002;4.688;2023-04-24T22:53:49;5.30;;;2.50;;
47545;SDS011;50104;52.002;4.688;2023-04-24T22:58:50;13.93;;;3.08;;
47545;SDS011;50104;52.002;4.688;2023-04-24T23:03:52;13.35;;;2.42;;
47545;SDS011;50104;52.002;4.688;2023-04-24T23:08:53;8.77;;;2.88;;
47545;SDS011;50104;52.002;4.688;2023-04-24T23:13:54;13.15;;;2.95;;
47545;SDS011;50104;52.002;4.688;2023-04-24T23:18:55;7.07;;;2.33;;
47545;SDS011;50104;52.002;4.688;2023-04-24T23:23:56;4.72;;;2.20;;
47545;SDS011;50104;52.002;4.688;2023-04-24T23:28:57;9.55;;;2.97;;
47545;SDS011;50104;52.002;4.688;2023-04-24T23:33:58;10.57;;;2.40;;
47545;SDS011;50104;52.002;4.688;2023-04-24T23:39:00;10.82;;;2.80;;
47545;SDS011;50104;52.002;4.688;2023-04-24T23:44:04;10.93;;;2.95;;
47545;SDS011;50104;52.002;4.688;2023-04-24T23:49:05;13.32;;;3.67;;
47545;SDS011;50104;52.002;4.688;2023-04-24T23:54:06;12.60;;;2.78;;
47545;SDS011;50104;52.002;4.688;2023-04-24T23:59:06;7.35;;;2.35;;
